createdAt,value
2023-05-24T00:02:00.072Z,17.50
2023-05-24T00:04:30.317Z,12.05
2023-05-24T00:06:58.209Z,6.97
2023-05-24T00:09:24.698Z,8.80
2023-05-24T00:11:51.207Z,7.72
2023-05-24T00:14:17.811Z,6.93
2023-05-24T00:16:44.340Z,6.75
2023-05-24T00:19:11.530Z,7.63
2023-05-24T00:21:38.180Z,18.02
2023-05-24T00:24:04.776Z,34.10
2023-05-24T00:26:31.324Z,35.17
2023-05-24T00:28:57.761Z,23.25
2023-05-24T00:31:24.274Z,10.38
2023-05-24T00:33:50.816Z,14.43
2023-05-24T00:36:17.251Z,20.88
2023-05-24T00:38:43.826Z,11.77
2023-05-24T00:41:11.540Z,12.70
2023-05-24T00:43:38.222Z,9.60
2023-05-24T00:46:13.717Z,7.15
2023-05-24T00:48:40.369Z,7.03
2023-05-24T00:51:06.952Z,7.30
2023-05-24T00:53:33.870Z,7.18
2023-05-24T00:56:00.517Z,6.95
2023-05-24T00:58:33.206Z,6.68
2023-05-24T01:01:00.606Z,7.03
2023-05-24T01:03:30.643Z,7.47
2023-05-24T01:06:02.462Z,8.80
2023-05-24T01:08:28.930Z,7.78
2023-05-24T01:10:59.556Z,7.88
2023-05-24T01:13:26.164Z,8.15
2023-05-24T01:16:05.696Z,7.30
2023-05-24T01:18:35.820Z,8.32
2023-05-24T01:21:14.601Z,7.13
2023-05-24T01:23:59.893Z,6.65
2023-05-24T01:26:32.028Z,6.47
2023-05-24T01:29:00.114Z,7.88
2023-05-24T01:31:26.737Z,7.63
2023-05-24T01:33:53.326Z,7.55
2023-05-24T01:36:19.828Z,9.68
2023-05-24T01:38:46.827Z,7.00
2023-05-24T01:41:36.657Z,6.50
2023-05-24T01:44:09.203Z,7.03
2023-05-24T01:46:37.511Z,8.18
2023-05-24T01:49:07.027Z,8.57
2023-05-24T01:51:37.207Z,7.53
2023-05-24T01:54:04.770Z,7.63
2023-05-24T01:56:32.063Z,7.65
2023-05-24T01:58:59.606Z,7.20
2023-05-24T02:01:26.744Z,8.02
2023-05-24T02:03:53.414Z,10.35
2023-05-24T02:06:19.963Z,10.45
2023-05-24T02:08:46.648Z,11.55
2023-05-24T02:11:13.162Z,11.75
2023-05-24T02:13:39.575Z,13.70
2023-05-24T02:16:06.114Z,16.55
2023-05-24T02:18:34.776Z,19.35
2023-05-24T02:21:02.373Z,28.00
2023-05-24T02:23:29.108Z,11.82
2023-05-24T02:25:56.244Z,38.90
2023-05-24T02:28:22.758Z,48.10
2023-05-24T02:30:49.251Z,8.98
2023-05-24T02:33:16.033Z,23.30
2023-05-24T02:35:42.790Z,48.08
2023-05-24T02:38:09.977Z,40.67
2023-05-24T02:40:36.441Z,48.00
2023-05-24T02:43:06.031Z,40.20
2023-05-24T02:45:32.603Z,52.42
2023-05-24T02:47:59.242Z,50.70
2023-05-24T02:50:25.704Z,30.33
2023-05-24T02:52:52.277Z,17.27
2023-05-24T02:55:18.799Z,7.25
2023-05-24T02:57:45.577Z,11.43
2023-05-24T03:00:14.843Z,10.57
2023-05-24T03:02:41.639Z,10.00
2023-05-24T03:05:08.357Z,7.53
2023-05-24T03:07:34.881Z,14.00
2023-05-24T03:10:01.422Z,7.45
2023-05-24T03:12:27.906Z,6.72
2023-05-24T03:14:54.370Z,8.98
2023-05-24T03:17:21.136Z,9.85
2023-05-24T03:19:47.735Z,7.65
2023-05-24T03:22:14.258Z,8.32
2023-05-24T03:24:40.758Z,7.78
2023-05-24T03:27:07.242Z,7.90
2023-05-24T03:29:33.815Z,6.00
2023-05-24T03:32:00.495Z,6.75
2023-05-24T03:34:27.058Z,7.78
2023-05-24T03:36:53.617Z,8.23
2023-05-24T03:39:20.038Z,8.88
2023-05-24T03:41:49.551Z,7.15
2023-05-24T03:44:16.230Z,7.53
2023-05-24T03:46:42.812Z,7.93
2023-05-24T03:49:09.247Z,9.38
2023-05-24T03:51:36.197Z,12.75
2023-05-24T03:54:02.664Z,7.63
2023-05-24T03:56:29.151Z,9.55
2023-05-24T03:59:00.866Z,8.48
2023-05-24T04:01:33.899Z,9.80
2023-05-24T04:04:02.218Z,10.93
2023-05-24T04:06:29.611Z,9.35
2023-05-24T04:08:59.335Z,11.95
2023-05-24T04:11:29.106Z,12.02
2023-05-24T04:13:56.212Z,12.23
2023-05-24T04:16:24.231Z,9.73
2023-05-24T04:18:51.050Z,9.18
2023-05-24T04:21:17.786Z,10.93
2023-05-24T04:23:44.469Z,14.95
2023-05-24T04:26:11.014Z,14.70
2023-05-24T04:28:41.191Z,11.85
2023-05-24T04:31:09.409Z,9.82
2023-05-24T04:33:36.935Z,9.43
2023-05-24T04:36:03.488Z,10.32
2023-05-24T04:38:32.160Z,9.52
2023-05-24T04:40:59.583Z,11.15
2023-05-24T04:43:29.021Z,11.68
2023-05-24T04:45:55.896Z,14.82
2023-05-24T04:48:24.295Z,9.75
2023-05-24T04:50:51.512Z,14.55
2023-05-24T04:53:20.454Z,15.15
2023-05-24T04:55:47.609Z,15.02
2023-05-24T04:58:14.794Z,13.25
2023-05-24T05:00:41.553Z,13.63
2023-05-24T05:03:08.753Z,10.85
2023-05-24T05:05:35.500Z,11.70
2023-05-24T05:08:02.529Z,16.73
2023-05-24T05:10:31.910Z,14.15
2023-05-24T05:12:58.333Z,16.42
2023-05-24T05:15:24.909Z,13.40
2023-05-24T05:17:51.421Z,18.45
2023-05-24T05:20:18.115Z,22.27
2023-05-24T05:22:50.881Z,62.38
2023-05-24T05:25:17.463Z,23.58
2023-05-24T05:27:44.065Z,12.90
2023-05-24T05:30:10.968Z,12.43
2023-05-24T05:32:37.881Z,23.75
2023-05-24T05:35:04.938Z,20.55
2023-05-24T05:37:31.579Z,15.73
2023-05-24T05:39:58.203Z,16.80
2023-05-24T05:42:24.702Z,16.15
2023-05-24T05:44:54.276Z,15.15
2023-05-24T05:47:20.764Z,17.88
2023-05-24T05:49:47.254Z,20.27
2023-05-24T05:52:13.897Z,14.00
2023-05-24T05:54:40.401Z,15.15
2023-05-24T05:57:10.505Z,15.68
2023-05-24T05:59:38.274Z,17.65
2023-05-24T06:02:05.887Z,14.55
2023-05-24T06:04:32.523Z,13.10
2023-05-24T06:06:59.500Z,13.00
2023-05-24T06:09:26.182Z,15.25
2023-05-24T06:11:52.665Z,15.95
2023-05-24T06:14:20.417Z,13.95
2023-05-24T06:16:48.159Z,13.85
2023-05-24T06:19:18.331Z,12.45
2023-05-24T06:21:48.191Z,14.23
2023-05-24T06:24:15.378Z,15.47
2023-05-24T06:26:42.413Z,14.07
2023-05-24T06:29:09.817Z,14.13
2023-05-24T06:31:36.390Z,13.35
2023-05-24T06:34:04.287Z,15.73
2023-05-24T06:36:34.150Z,14.30
2023-05-24T06:39:01.402Z,12.20
2023-05-24T06:41:28.355Z,13.77
2023-05-24T06:43:55.068Z,12.85
2023-05-24T06:46:21.604Z,11.88
2023-05-24T06:48:48.086Z,12.65
2023-05-24T06:51:14.659Z,14.95
2023-05-24T06:53:41.621Z,13.98
2023-05-24T06:56:09.481Z,12.30
2023-05-24T06:58:36.668Z,13.93
2023-05-24T07:01:05.004Z,10.50
2023-05-24T07:03:32.495Z,12.43
2023-05-24T07:05:59.097Z,11.65
2023-05-24T07:08:25.854Z,10.80
2023-05-24T07:10:53.634Z,10.10
2023-05-24T07:13:20.085Z,10.25
2023-05-24T07:15:49.516Z,10.15
2023-05-24T07:18:16.474Z,11.02
2023-05-24T07:20:43.338Z,8.45
2023-05-24T07:23:10.175Z,10.93
2023-05-24T07:25:36.801Z,7.85
2023-05-24T07:28:03.331Z,9.40
2023-05-24T07:30:34.854Z,10.10
2023-05-24T07:33:02.049Z,10.48
2023-05-24T07:35:29.512Z,9.25
2023-05-24T07:37:59.005Z,8.05
2023-05-24T07:40:25.467Z,8.43
2023-05-24T07:42:51.913Z,10.13
2023-05-24T07:45:18.401Z,8.65
2023-05-24T07:47:44.896Z,7.60
2023-05-24T07:50:11.885Z,8.93
2023-05-24T07:52:38.862Z,8.63
2023-05-24T07:55:09.849Z,7.65
2023-05-24T08:00:10.341Z,9.60
2023-05-24T08:02:36.927Z,9.60
2023-05-24T08:05:05.178Z,7.20
2023-05-24T08:07:31.606Z,9.32
2023-05-24T08:09:58.063Z,6.72
2023-05-24T08:12:26.117Z,7.45
2023-05-24T08:14:52.771Z,8.63
2023-05-24T08:17:19.219Z,10.45
2023-05-24T08:19:45.990Z,8.57
2023-05-24T08:22:12.776Z,10.07
2023-05-24T08:24:39.289Z,8.35
2023-05-24T08:27:06.042Z,8.95
2023-05-24T08:29:32.517Z,9.40
2023-05-24T08:32:01.021Z,8.77
2023-05-24T08:34:28.540Z,7.45
2023-05-24T08:36:55.171Z,7.10
2023-05-24T08:39:21.837Z,5.93
2023-05-24T08:42:00.861Z,5.97
2023-05-24T08:44:41.379Z,7.30
2023-05-24T08:47:08.340Z,7.53
2023-05-24T08:49:37.234Z,12.27
2023-05-24T08:52:04.392Z,7.80
2023-05-24T08:54:31.292Z,6.35
2023-05-24T08:56:58.082Z,6.90
2023-05-24T08:59:25.135Z,5.43
2023-05-24T09:01:53.687Z,7.78
2023-05-24T09:04:24.122Z,5.68
2023-05-24T09:06:52.188Z,7.63
2023-05-24T09:09:19.974Z,6.47
2023-05-24T09:11:47.403Z,7.00
2023-05-24T09:14:14.128Z,8.23
2023-05-24T09:16:40.647Z,8.00
2023-05-24T09:19:07.118Z,7.95
2023-05-24T09:21:34.043Z,6.30
2023-05-24T09:24:00.665Z,5.85
2023-05-24T09:26:30.469Z,6.03
2023-05-24T09:28:57.869Z,6.13
2023-05-24T09:31:37.371Z,6.38
2023-05-24T09:34:04.771Z,6.28
2023-05-24T09:36:33.155Z,8.35
2023-05-24T09:39:08.473Z,5.50
2023-05-24T09:41:35.459Z,9.73
2023-05-24T09:44:01.897Z,7.82
2023-05-24T09:46:29.856Z,8.30
2023-05-24T09:48:59.617Z,7.60
2023-05-24T09:51:26.999Z,8.88
2023-05-24T09:53:58.755Z,6.28
2023-05-24T09:56:26.410Z,6.97
2023-05-24T09:58:53.908Z,8.82
2023-05-24T10:01:22.746Z,6.95
2023-05-24T10:03:54.108Z,7.50
2023-05-24T10:06:20.942Z,8.02
2023-05-24T10:08:48.443Z,10.27
2023-05-24T10:11:14.987Z,8.00
2023-05-24T10:13:41.784Z,6.25
2023-05-24T10:16:08.774Z,5.68
2023-05-24T10:18:35.276Z,6.88
2023-05-24T10:21:02.774Z,6.70
2023-05-24T10:23:32.755Z,5.47
2023-05-24T10:26:09.784Z,5.50
2023-05-24T10:28:38.374Z,4.80
2023-05-24T10:31:15.012Z,8.18
2023-05-24T10:33:43.433Z,6.93
2023-05-24T10:36:11.323Z,7.30
2023-05-24T10:38:39.780Z,5.00
2023-05-24T10:41:08.189Z,11.40
2023-05-24T10:43:35.868Z,5.55
2023-05-24T10:46:03.036Z,5.63
2023-05-24T10:48:29.537Z,5.30
2023-05-24T10:50:56.291Z,9.05
2023-05-24T10:53:23.643Z,5.78
2023-05-24T10:55:56.343Z,9.10
2023-05-24T10:58:30.656Z,6.88
2023-05-24T11:00:57.256Z,12.98
2023-05-24T11:03:24.634Z,6.32
2023-05-24T11:05:54.978Z,7.15
2023-05-24T11:08:31.950Z,5.25
2023-05-24T11:11:23.252Z,5.85
2023-05-24T11:13:56.005Z,5.53
2023-05-24T11:16:39.437Z,7.20
2023-05-24T11:19:20.177Z,7.25
2023-05-24T11:21:50.606Z,6.63
2023-05-24T11:24:18.104Z,4.15
2023-05-24T11:26:45.037Z,4.60
2023-05-24T11:29:20.933Z,5.35
2023-05-24T11:31:48.663Z,8.45
2023-05-24T11:34:16.092Z,6.32
2023-05-24T11:36:42.831Z,6.95
2023-05-24T11:39:09.593Z,6.35
2023-05-24T11:41:39.621Z,6.63
2023-05-24T11:44:07.481Z,7.75
2023-05-24T11:46:34.032Z,5.05
2023-05-24T11:49:01.020Z,5.68
2023-05-24T11:51:28.614Z,7.65
2023-05-24T11:53:55.776Z,4.70
2023-05-24T11:56:23.248Z,5.70
2023-05-24T11:58:50.855Z,8.90
2023-05-24T12:01:27.374Z,4.85
2023-05-24T12:03:54.619Z,5.30
2023-05-24T12:06:22.029Z,5.00
2023-05-24T12:08:48.880Z,4.95
2023-05-24T12:11:16.136Z,8.02
2023-05-24T12:13:42.738Z,5.47
2023-05-24T12:16:11.003Z,6.18
2023-05-24T12:18:38.653Z,4.63
2023-05-24T12:21:11.814Z,4.72
2023-05-24T12:23:39.455Z,5.03
2023-05-24T12:26:06.034Z,4.80
2023-05-24T12:28:36.447Z,6.72
2023-05-24T12:31:04.056Z,5.05
2023-05-24T12:33:30.676Z,5.35
2023-05-24T12:35:58.719Z,5.63
2023-05-24T12:38:25.762Z,7.03
2023-05-24T12:41:10.810Z,4.78
2023-05-24T12:43:39.351Z,6.07
2023-05-24T12:46:05.852Z,7.45
2023-05-24T12:48:32.432Z,5.25
2023-05-24T12:50:58.973Z,5.65
2023-05-24T12:53:26.112Z,5.05
2023-05-24T12:55:56.019Z,6.57
2023-05-24T13:00:50.460Z,5.60
2023-05-24T13:03:17.076Z,5.22
2023-05-24T13:05:43.758Z,6.03
2023-05-24T13:08:10.323Z,4.68
2023-05-24T13:10:37.295Z,4.38
2023-05-24T13:13:03.796Z,5.70
2023-05-24T13:15:30.485Z,6.45
2023-05-24T13:17:57.020Z,5.93
2023-05-24T13:20:24.472Z,7.65
2023-05-24T13:22:51.429Z,5.70
2023-05-24T13:25:17.930Z,4.72
2023-05-24T13:27:44.443Z,4.53
2023-05-24T13:30:12.515Z,7.57
2023-05-24T13:32:41.066Z,13.00
2023-05-24T13:35:08.688Z,3.95
2023-05-24T13:37:35.330Z,4.38
2023-05-24T13:40:01.854Z,8.20
2023-05-24T13:42:28.460Z,4.95
2023-05-24T13:44:56.338Z,4.80
2023-05-24T13:47:35.196Z,4.80
2023-05-24T13:50:02.349Z,4.43
2023-05-24T13:52:28.768Z,3.88
2023-05-24T13:54:55.953Z,6.25
2023-05-24T13:57:24.407Z,4.72
2023-05-24T13:59:53.309Z,5.13
2023-05-24T14:02:19.872Z,6.45
2023-05-24T14:04:46.316Z,5.85
2023-05-24T14:07:15.631Z,4.15
2023-05-24T14:09:42.593Z,5.70
2023-05-24T14:12:09.102Z,4.60
2023-05-24T14:14:59.417Z,4.57
2023-05-24T14:17:24.122Z,3.50
2023-05-24T14:19:50.721Z,3.25
2023-05-24T14:22:17.951Z,5.00
2023-05-24T14:24:44.441Z,4.45
2023-05-24T14:27:10.929Z,5.75
2023-05-24T14:29:37.347Z,3.90
2023-05-24T14:32:04.167Z,4.93
2023-05-24T14:34:30.640Z,3.53
2023-05-24T14:36:57.095Z,4.75
2023-05-24T14:39:23.519Z,3.35
2023-05-24T14:41:49.978Z,3.65
2023-05-24T14:44:16.420Z,4.55
2023-05-24T14:46:43.003Z,6.25
2023-05-24T14:49:09.614Z,5.18
2023-05-24T14:51:36.776Z,5.85
2023-05-24T14:54:03.328Z,6.35
2023-05-24T14:56:29.877Z,3.60
2023-05-24T14:58:57.472Z,3.03
2023-05-24T15:01:24.175Z,3.50
2023-05-24T15:03:50.721Z,3.10
2023-05-24T15:06:17.670Z,6.07
2023-05-24T15:08:44.145Z,4.03
2023-05-24T15:11:11.329Z,3.13
2023-05-24T15:13:38.479Z,3.85
2023-05-24T15:16:07.728Z,9.82
2023-05-24T15:18:34.210Z,4.47
2023-05-24T15:21:00.991Z,4.45
2023-05-24T15:23:27.585Z,3.58
2023-05-24T15:25:54.048Z,5.45
2023-05-24T15:28:20.641Z,4.00
2023-05-24T15:30:47.422Z,5.18
2023-05-24T15:33:16.725Z,5.93
2023-05-24T15:35:43.454Z,4.80
2023-05-24T15:38:09.887Z,6.00
2023-05-24T15:40:38.452Z,4.20
2023-05-24T15:43:04.979Z,5.45
2023-05-24T15:45:31.480Z,4.40
2023-05-24T15:47:58.036Z,3.22
2023-05-24T15:50:45.574Z,3.03
2023-05-24T15:53:11.741Z,7.25
2023-05-24T15:55:38.996Z,3.00
2023-05-24T15:58:05.576Z,4.07
2023-05-24T16:00:32.366Z,5.15
2023-05-24T16:02:58.962Z,4.22
2023-05-24T16:05:26.935Z,3.13
2023-05-24T16:07:53.420Z,3.13
2023-05-24T16:10:19.881Z,3.67
2023-05-24T16:12:46.487Z,4.18
2023-05-24T16:15:12.922Z,3.25
2023-05-24T16:17:43.034Z,4.25
2023-05-24T16:20:09.770Z,3.95
2023-05-24T16:22:36.720Z,4.75
2023-05-24T16:25:03.319Z,3.85
2023-05-24T16:27:29.740Z,4.15
2023-05-24T16:29:56.186Z,7.20
2023-05-24T16:32:22.741Z,4.18
2023-05-24T16:34:56.188Z,4.07
2023-05-24T16:37:23.849Z,6.40
2023-05-24T16:39:50.471Z,5.47
2023-05-24T16:42:16.969Z,5.00
2023-05-24T16:44:43.624Z,4.03
2023-05-24T16:47:10.234Z,5.03
2023-05-24T16:49:36.737Z,6.68
2023-05-24T16:52:03.297Z,6.78
2023-05-24T16:54:29.732Z,6.72
2023-05-24T16:56:56.745Z,4.32
2023-05-24T16:59:23.442Z,5.57
2023-05-24T17:01:51.599Z,4.43
2023-05-24T17:04:18.899Z,5.18
2023-05-24T17:06:45.405Z,5.93
2023-05-24T17:09:15.026Z,7.65
2023-05-24T17:11:41.507Z,4.25
2023-05-24T17:14:08.023Z,5.90
2023-05-24T17:16:34.804Z,5.65
2023-05-24T17:19:01.275Z,7.47
2023-05-24T17:21:28.031Z,6.47
2023-05-24T17:23:55.514Z,5.90
2023-05-24T17:26:24.295Z,3.78
2023-05-24T17:28:52.136Z,6.37
2023-05-24T17:31:18.648Z,7.70
2023-05-24T17:33:45.348Z,4.47
2023-05-24T17:36:11.828Z,4.75
2023-05-24T17:38:39.002Z,3.83
2023-05-24T17:41:07.932Z,3.67
2023-05-24T17:43:34.586Z,4.55
2023-05-24T17:46:06.958Z,3.42
2023-05-24T17:48:34.404Z,3.53
2023-05-24T17:51:01.887Z,2.55
2023-05-24T17:53:34.426Z,5.45
2023-05-24T17:56:01.238Z,4.10
2023-05-24T17:58:30.700Z,4.80
2023-05-24T18:00:57.209Z,4.43
2023-05-24T18:03:24.053Z,5.05
2023-05-24T18:05:50.498Z,2.78
2023-05-24T18:08:16.983Z,3.63
2023-05-24T18:10:45.422Z,2.88
2023-05-24T18:13:11.897Z,3.00
2023-05-24T18:15:38.349Z,3.50
2023-05-24T18:18:05.029Z,3.28
2023-05-24T18:20:31.662Z,5.03
2023-05-24T18:22:58.189Z,3.30
2023-05-24T18:25:24.701Z,3.65
2023-05-24T18:27:51.420Z,2.67
2023-05-24T18:30:17.979Z,3.53
2023-05-24T18:33:02.576Z,4.20
2023-05-24T18:35:30.684Z,2.92
2023-05-24T18:37:59.847Z,3.65
2023-05-24T18:40:26.324Z,4.38
2023-05-24T18:42:52.989Z,2.28
2023-05-24T18:45:19.466Z,7.30
2023-05-24T18:47:46.025Z,2.30
2023-05-24T18:50:12.510Z,3.25
2023-05-24T18:52:38.948Z,3.38
2023-05-24T18:55:10.545Z,2.67
2023-05-24T18:57:37.626Z,6.63
2023-05-24T19:00:04.798Z,5.07
2023-05-24T19:02:31.466Z,4.97
2023-05-24T19:04:58.167Z,3.90
2023-05-24T19:07:24.658Z,2.70
2023-05-24T19:09:51.135Z,3.78
2023-05-24T19:12:17.572Z,3.03
2023-05-24T19:14:44.175Z,3.25
2023-05-24T19:17:10.643Z,4.32
2023-05-24T19:19:37.188Z,4.35
2023-05-24T19:22:03.630Z,3.25
2023-05-24T19:24:30.109Z,2.67
2023-05-24T19:26:56.746Z,3.33
2023-05-24T19:29:23.233Z,4.07
2023-05-24T19:31:50.909Z,3.63
2023-05-24T19:34:18.422Z,2.88
2023-05-24T19:36:45.185Z,5.00
2023-05-24T19:39:11.964Z,3.20
2023-05-24T19:41:38.439Z,3.38
2023-05-24T19:44:04.867Z,4.43
2023-05-24T19:46:31.957Z,3.22
2023-05-24T19:48:58.451Z,3.50
2023-05-24T19:51:25.024Z,4.88
2023-05-24T19:53:51.511Z,3.35
2023-05-24T19:56:18.017Z,3.47
2023-05-24T19:58:44.661Z,3.30
2023-05-24T20:01:11.213Z,8.40
2023-05-24T20:03:38.250Z,3.55
2023-05-24T20:06:04.850Z,3.90
2023-05-24T20:08:31.354Z,4.30
2023-05-24T20:10:57.802Z,5.18
2023-05-24T20:13:24.244Z,4.75
2023-05-24T20:15:51.235Z,3.05
2023-05-24T20:18:18.532Z,4.47
2023-05-24T20:20:45.104Z,11.88
2023-05-24T20:23:11.588Z,4.03
2023-05-24T20:25:38.056Z,3.78
2023-05-24T20:28:12.785Z,5.85
2023-05-24T20:30:45.805Z,5.43
2023-05-24T20:33:12.605Z,4.57
2023-05-24T20:35:39.253Z,4.53
2023-05-24T20:38:05.671Z,4.55
2023-05-24T20:40:32.162Z,5.60
2023-05-24T20:42:58.692Z,3.47
2023-05-24T20:45:25.516Z,4.85
2023-05-24T20:47:52.147Z,4.15
2023-05-24T20:50:18.674Z,4.93
2023-05-24T20:52:45.214Z,4.30
2023-05-24T20:55:12.070Z,5.03
2023-05-24T20:57:38.603Z,3.55
2023-05-24T21:00:05.401Z,3.75
2023-05-24T21:02:35.260Z,7.65
2023-05-24T21:05:01.796Z,6.07
2023-05-24T21:07:28.391Z,4.05
2023-05-24T21:09:54.879Z,7.20
2023-05-24T21:12:21.696Z,4.25
2023-05-24T21:14:48.235Z,7.00
2023-05-24T21:17:14.815Z,6.50
2023-05-24T21:19:43.792Z,10.52
2023-05-24T21:22:10.472Z,6.05
2023-05-24T21:24:37.003Z,9.70
2023-05-24T21:27:03.711Z,8.68
2023-05-24T21:29:30.233Z,9.40
2023-05-24T21:31:56.793Z,9.40
2023-05-24T21:34:23.256Z,12.65
2023-05-24T21:36:49.702Z,9.20
2023-05-24T21:39:16.203Z,14.60
2023-05-24T21:41:42.898Z,12.50
2023-05-24T21:44:09.405Z,11.75
2023-05-24T21:46:36.523Z,11.52
2023-05-24T21:49:03.120Z,14.70
2023-05-24T21:51:29.674Z,18.42
2023-05-24T21:53:56.243Z,12.65
2023-05-24T21:56:23.043Z,11.98
2023-05-24T21:58:49.507Z,14.00
2023-05-24T22:01:16.130Z,11.05
2023-05-24T22:03:42.758Z,14.10
2023-05-24T22:06:09.368Z,16.85
2023-05-24T22:08:35.886Z,17.35
2023-05-24T22:11:02.330Z,15.20
2023-05-24T22:13:28.860Z,14.95
2023-05-24T22:15:55.661Z,15.05
2023-05-24T22:18:22.218Z,16.15
2023-05-24T22:20:50.857Z,15.18
2023-05-24T22:23:17.817Z,12.05
2023-05-24T22:25:44.840Z,20.30
2023-05-24T22:28:11.588Z,18.42
2023-05-24T22:30:38.159Z,16.85
2023-05-24T22:33:04.750Z,15.20
2023-05-24T22:35:32.400Z,20.40
2023-05-24T22:37:58.850Z,18.67
2023-05-24T22:40:25.421Z,15.85
2023-05-24T22:42:51.889Z,18.77
2023-05-24T22:45:18.557Z,22.75
2023-05-24T22:47:49.173Z,18.45
2023-05-24T22:50:16.134Z,15.02
2023-05-24T22:52:42.906Z,17.80
2023-05-24T22:55:10.990Z,22.33
2023-05-24T22:57:37.682Z,22.05
2023-05-24T23:00:05.713Z,24.67
2023-05-24T23:02:33.602Z,24.48
2023-05-24T23:05:00.318Z,19.80
2023-05-24T23:07:27.058Z,18.83
2023-05-24T23:09:55.755Z,22.02
2023-05-24T23:12:22.321Z,16.73
2023-05-24T23:14:48.798Z,16.98
2023-05-24T23:17:15.519Z,23.67
2023-05-24T23:19:46.570Z,21.35
2023-05-24T23:24:42.118Z,18.33
2023-05-24T23:27:08.958Z,20.83
2023-05-24T23:29:35.558Z,20.17
2023-05-24T23:32:02.133Z,17.80
2023-05-24T23:34:28.789Z,21.23
2023-05-24T23:36:55.439Z,18.90
2023-05-24T23:39:21.879Z,20.40
2023-05-24T23:41:48.330Z,24.02
2023-05-24T23:44:14.845Z,17.98
2023-05-24T23:46:43.411Z,28.55
2023-05-24T23:49:09.899Z,23.55
2023-05-24T23:51:36.590Z,24.08
2023-05-24T23:54:03.152Z,15.75
2023-05-24T23:56:29.648Z,22.13
2023-05-24T23:58:56.210Z,23.65
